sensor_id;sensor_type;location;lat;lon;timestamp;pressure;altitude;pressure_sealevel;temperature
63113;BMP280;49206;48.020;21.378;2022-09-03T00:09:50;100628.94;;;14.07
63113;BMP280;49206;48.020;21.378;2022-09-03T00:20:06;100632.22;;;14.19
63113;BMP280;49206;48.020;21.378;2022-09-03T00:30:14;100621.56;;;14.16
63113;BMP280;49206;48.020;21.378;2022-09-03T01:01:14;100636.34;;;14.36
63113;BMP280;49206;48.020;21.378;2022-09-03T01:11:20;100640.56;;;14.37
63113;BMP280;49206;48.020;21.378;2022-09-03T01:31:35;100654.19;;;14.35
63113;BMP280;49206;48.020;21.378;2022-09-03T02:02:39;100657.75;;;14.43
63113;BMP280;49206;48.020;21.378;2022-09-03T02:12:48;100658.03;;;14.38
63113;BMP280;49206;48.020;21.378;2022-09-03T02:22:53;100658.09;;;14.41
63113;BMP280;49206;48.020;21.378;2022-09-03T02:32:55;100674.81;;;14.42
63113;BMP280;49206;48.020;21.378;2022-09-03T02:42:58;100669.00;;;14.36
63113;BMP280;49206;48.020;21.378;2022-09-03T02:53:03;100660.75;;;14.41
63113;BMP280;49206;48.020;21.378;2022-09-03T03:03:08;100669.97;;;14.47
63113;BMP280;49206;48.020;21.378;2022-09-03T03:13:11;100684.66;;;14.41
63113;BMP280;49206;48.020;21.378;2022-09-03T03:23:13;100680.97;;;14.27
63113;BMP280;49206;48.020;21.378;2022-09-03T03:33:15;100683.97;;;14.25
63113;BMP280;49206;48.020;21.378;2022-09-03T03:43:18;100677.97;;;14.09
63113;BMP280;49206;48.020;21.378;2022-09-03T03:53:20;100682.97;;;13.95
63113;BMP280;49206;48.020;21.378;2022-09-03T04:03:23;100694.16;;;13.85
63113;BMP280;49206;48.020;21.378;2022-09-03T04:13:38;100688.31;;;13.61
63113;BMP280;49206;48.020;21.378;2022-09-03T04:23:42;100692.63;;;13.50
63113;BMP280;49206;48.020;21.378;2022-09-03T04:33:46;100700.28;;;13.39
63113;BMP280;49206;48.020;21.378;2022-09-03T04:43:50;100712.03;;;13.54
63113;BMP280;49206;48.020;21.378;2022-09-03T04:53:55;100722.91;;;13.83
63113;BMP280;49206;48.020;21.378;2022-09-03T05:03:59;100710.97;;;14.27
63113;BMP280;49206;48.020;21.378;2022-09-03T05:14:02;100716.19;;;14.62
63113;BMP280;49206;48.020;21.378;2022-09-03T05:24:06;100726.28;;;14.94
63113;BMP280;49206;48.020;21.378;2022-09-03T05:34:09;100743.78;;;15.40
63113;BMP280;49206;48.020;21.378;2022-09-03T05:44:19;100759.34;;;15.90
63113;BMP280;49206;48.020;21.378;2022-09-03T05:54:24;100745.19;;;16.41
63113;BMP280;49206;48.020;21.378;2022-09-03T06:04:30;100756.50;;;17.07
63113;BMP280;49206;48.020;21.378;2022-09-03T06:14:34;100752.50;;;17.34
63113;BMP280;49206;48.020;21.378;2022-09-03T06:24:37;100747.81;;;17.78
63113;BMP280;49206;48.020;21.378;2022-09-03T06:34:40;100744.16;;;18.10
63113;BMP280;49206;48.020;21.378;2022-09-03T06:44:45;100747.34;;;18.79
63113;BMP280;49206;48.020;21.378;2022-09-03T06:54:48;100746.16;;;19.42
63113;BMP280;49206;48.020;21.378;2022-09-03T07:04:51;100758.78;;;19.56
63113;BMP280;49206;48.020;21.378;2022-09-03T07:14:55;100748.84;;;20.38
63113;BMP280;49206;48.020;21.378;2022-09-03T07:24:57;100765.19;;;20.58
63113;BMP280;49206;48.020;21.378;2022-09-03T07:35:00;100770.09;;;21.80
63113;BMP280;49206;48.020;21.378;2022-09-03T07:45:07;100767.53;;;22.03
63113;BMP280;49206;48.020;21.378;2022-09-03T07:55:12;100780.72;;;20.84
63113;BMP280;49206;48.020;21.378;2022-09-03T08:05:15;100770.13;;;19.98
63113;BMP280;49206;48.020;21.378;2022-09-03T08:15:22;100790.34;;;20.23
63113;BMP280;49206;48.020;21.378;2022-09-03T08:25:26;100777.03;;;21.48
63113;BMP280;49206;48.020;21.378;2022-09-03T08:35:31;100777.78;;;21.15
63113;BMP280;49206;48.020;21.378;2022-09-03T08:45:35;100770.63;;;22.28
63113;BMP280;49206;48.020;21.378;2022-09-03T08:55:50;100774.56;;;23.34
63113;BMP280;49206;48.020;21.378;2022-09-03T09:27:15;100756.00;;;23.40
63113;BMP280;49206;48.020;21.378;2022-09-03T09:37:33;100774.84;;;23.21
63113;BMP280;49206;48.020;21.378;2022-09-03T09:47:40;100770.66;;;22.51
63113;BMP280;49206;48.020;21.378;2022-09-03T10:08:42;100769.72;;;25.36
63113;BMP280;49206;48.020;21.378;2022-09-03T10:19:15;100759.00;;;25.33
63113;BMP280;49206;48.020;21.378;2022-09-03T10:29:20;100763.31;;;26.30
63113;BMP280;49206;48.020;21.378;2022-09-03T11:00:17;100762.38;;;25.62
63113;BMP280;49206;48.020;21.378;2022-09-03T11:10:30;100770.78;;;27.67
63113;BMP280;49206;48.020;21.378;2022-09-03T11:20:34;100764.94;;;26.95
63113;BMP280;49206;48.020;21.378;2022-09-03T11:41:25;100770.25;;;23.95
63113;BMP280;49206;48.020;21.378;2022-09-03T11:51:33;100769.94;;;26.75
63113;BMP280;49206;48.020;21.378;2022-09-03T12:22:18;100759.16;;;28.50
63113;BMP280;49206;48.020;21.378;2022-09-03T12:32:22;100760.50;;;28.19
63113;BMP280;49206;48.020;21.378;2022-09-03T12:42:27;100750.91;;;27.78
63113;BMP280;49206;48.020;21.378;2022-09-03T12:52:38;100752.50;;;27.06
63113;BMP280;49206;48.020;21.378;2022-09-03T13:02:55;100755.28;;;27.76
63113;BMP280;49206;48.020;21.378;2022-09-03T13:13:06;100739.09;;;27.64
63113;BMP280;49206;48.020;21.378;2022-09-03T13:23:36;100754.09;;;27.86
63113;BMP280;49206;48.020;21.378;2022-09-03T13:33:44;100741.50;;;27.31
63113;BMP280;49206;48.020;21.378;2022-09-03T13:43:58;100741.03;;;27.24
63113;BMP280;49206;48.020;21.378;2022-09-03T13:54:19;100738.91;;;25.96
63113;BMP280;49206;48.020;21.378;2022-09-03T14:04:57;100736.44;;;26.35
63113;BMP280;49206;48.020;21.378;2022-09-03T14:25:15;100735.03;;;26.86
63113;BMP280;49206;48.020;21.378;2022-09-03T14:45:38;100734.34;;;26.05
63113;BMP280;49206;48.020;21.378;2022-09-03T14:56:04;100730.97;;;26.14
63113;BMP280;49206;48.020;21.378;2022-09-03T15:27:15;100741.34;;;24.88
63113;BMP280;49206;48.020;21.378;2022-09-03T15:37:27;100740.03;;;24.64
63113;BMP280;49206;48.020;21.378;2022-09-03T15:47:51;100742.91;;;24.25
63113;BMP280;49206;48.020;21.378;2022-09-03T15:58:04;100760.00;;;23.87
63113;BMP280;49206;48.020;21.378;2022-09-03T16:19:44;100755.84;;;22.39
63113;BMP280;49206;48.020;21.378;2022-09-03T16:29:28;100771.31;;;21.76
63113;BMP280;49206;48.020;21.378;2022-09-03T17:00:27;100788.69;;;20.36
63113;BMP280;49206;48.020;21.378;2022-09-03T17:31:45;100803.22;;;19.32
63113;BMP280;49206;48.020;21.378;2022-09-03T17:42:38;100818.50;;;19.14
63113;BMP280;49206;48.020;21.378;2022-09-03T17:52:50;100814.69;;;18.94
63113;BMP280;49206;48.020;21.378;2022-09-03T18:03:06;100832.28;;;18.82
63113;BMP280;49206;48.020;21.378;2022-09-03T18:33:48;100854.25;;;17.69
63113;BMP280;49206;48.020;21.378;2022-09-03T19:59:25;100920.09;;;17.44
63113;BMP280;49206;48.020;21.378;2022-09-03T20:09:52;100903.53;;;17.28
63113;BMP280;49206;48.020;21.378;2022-09-03T20:20:35;100926.28;;;17.15
63113;BMP280;49206;48.020;21.378;2022-09-03T20:30:51;100935.84;;;16.87
63113;BMP280;49206;48.020;21.378;2022-09-03T20:51:37;100955.22;;;16.80
63113;BMP280;49206;48.020;21.378;2022-09-03T21:22:57;100959.66;;;16.43
63113;BMP280;49206;48.020;21.378;2022-09-03T21:33:01;100963.13;;;16.22
63113;BMP280;49206;48.020;21.378;2022-09-03T21:43:10;100966.53;;;16.22
63113;BMP280;49206;48.020;21.378;2022-09-03T22:03:26;100974.59;;;16.00
63113;BMP280;49206;48.020;21.378;2022-09-03T22:34:36;100998.44;;;15.74
63113;BMP280;49206;48.020;21.378;2022-09-03T22:55:16;100994.28;;;15.54
63113;BMP280;49206;48.020;21.378;2022-09-03T23:26:28;100989.66;;;15.13
63113;BMP280;49206;48.020;21.378;2022-09-03T23:57:36;101001.72;;;14.73
